Time;durP1;ratioP1;P1;durP2;ratioP2;P2;SDS_P1;SDS_P2;PMS_P1;PMS_P2;Temp;Humidity;BMP_temperature;BMP_pressure;BME280_temperature;BME280_humidity;BME280_pressure;Samples;Min_cycle;Max_cycle;Signal;HPM_P1;HPM_P2
2022/10/10 00:00:40;;;;;;;9.27;3.93;;;10.70;92.70;;;;;;5111192;28;20185;-62
2022/10/10 00:03:06;;;;;;;6.60;3.90;;;10.70;92.60;;;;;;5111373;28;20180;-62
2022/10/10 00:05:32;;;;;;;9.20;4.10;;;10.80;92.60;;;;;;5085644;28;20408;-63
2022/10/10 00:07:58;;;;;;;5.97;3.53;;;10.80;92.50;;;;;;5098920;28;20191;-63
2022/10/10 00:10:24;;;;;;;6.67;3.73;;;10.80;92.50;;;;;;5115212;28;20283;-64
2022/10/10 00:12:50;;;;;;;6.17;3.80;;;10.80;92.40;;;;;;5114279;28;20263;-62
2022/10/10 00:15:16;;;;;;;6.47;4.03;;;10.90;92.30;;;;;;5095322;28;20228;-62
2022/10/10 00:17:43;;;;;;;10.23;4.23;;;10.90;92.30;;;;;;5095635;28;20181;-62
2022/10/10 00:20:11;;;;;;;6.77;4.03;;;11.00;92.20;;;;;;5106066;28;20181;-62
2022/10/10 00:22:36;;;;;;;8.93;4.13;;;11.00;92.10;;;;;;5103173;28;20200;-62
2022/10/10 00:25:03;;;;;;;8.50;4.20;;;10.90;92.20;;;;;;5095795;28;20385;-63
2022/10/10 00:27:29;;;;;;;5.17;4.23;;;10.90;92.20;;;;;;5111369;28;20191;-63
2022/10/10 00:29:54;;;;;;;4.53;3.60;;;10.90;92.30;;;;;;5108134;28;20177;-62
2022/10/10 00:32:20;;;;;;;9.40;4.17;;;11.00;92.10;;;;;;5080559;28;20239;-62
2022/10/10 00:34:46;;;;;;;11.73;3.83;;;11.00;92.10;;;;;;5077912;28;20216;-63
2022/10/10 00:37:11;;;;;;;8.20;4.13;;;11.00;91.90;;;;;;5079948;28;20639;-62
2022/10/10 00:39:37;;;;;;;7.90;3.73;;;10.90;91.70;;;;;;5080848;28;20228;-62
2022/10/10 00:42:03;;;;;;;9.83;4.40;;;10.80;91.70;;;;;;5093212;28;20217;-62
2022/10/10 00:44:29;;;;;;;10.07;4.60;;;10.60;92.00;;;;;;5098334;28;20224;-62
2022/10/10 00:46:54;;;;;;;7.83;4.20;;;10.60;92.10;;;;;;5098058;28;20215;-62
2022/10/10 00:49:24;;;;;;;5.60;3.90;;;10.70;92.10;;;;;;5097289;28;20177;-63
2022/10/10 00:51:53;;;;;;;6.53;3.87;;;10.60;92.00;;;;;;5102081;28;20201;-62
2022/10/10 00:54:20;;;;;;;6.43;3.50;;;10.60;91.90;;;;;;5100561;28;20264;-62
2022/10/10 00:56:56;;;;;;;9.53;4.17;;;10.70;91.80;;;;;;5109845;28;20209;-62
2022/10/10 00:59:23;;;;;;;10.17;5.30;;;10.60;91.80;;;;;;5113291;28;20225;-62
2022/10/10 01:01:49;;;;;;;4.80;3.90;;;10.60;91.90;;;;;;5096394;28;20189;-62
2022/10/10 01:04:35;;;;;;;7.60;4.23;;;10.50;91.80;;;;;;5097324;28;20237;-61
2022/10/10 01:07:22;;;;;;;5.30;4.40;;;10.60;91.90;;;;;;5095069;28;20191;-63
2022/10/10 01:09:50;;;;;;;6.83;3.70;;;10.60;91.80;;;;;;5097491;28;20176;-63
2022/10/10 01:12:34;;;;;;;7.17;4.27;;;10.60;91.50;;;;;;5114437;28;20234;-63
2022/10/10 01:15:06;;;;;;;8.33;4.10;;;10.60;91.90;;;;;;5114722;28;20172;-63
2022/10/10 01:18:02;;;;;;;5.97;3.77;;;10.60;91.70;;;;;;5104699;28;20209;-63
2022/10/10 01:20:57;;;;;;;5.50;3.47;;;10.60;91.90;;;;;;5110687;28;20213;-62
2022/10/10 01:23:53;;;;;;;9.37;3.50;;;10.60;91.90;;;;;;5060557;28;20201;-62
2022/10/10 01:26:19;;;;;;;5.97;4.07;;;10.30;92.00;;;;;;5106091;28;20184;-62
2022/10/10 01:28:55;;;;;;;6.63;4.00;;;10.50;92.20;;;;;;5104546;28;20251;-62
2022/10/10 01:31:23;;;;;;;5.83;3.43;;;10.50;92.20;;;;;;5097043;28;20258;-63
2022/10/10 01:34:07;;;;;;;6.97;3.50;;;10.60;92.00;;;;;;5115233;28;20984;-63
2022/10/10 01:37:03;;;;;;;7.20;3.70;;;10.70;91.80;;;;;;5113624;28;20180;-63
2022/10/10 01:39:44;;;;;;;6.67;3.73;;;10.70;91.70;;;;;;5100118;28;20232;-63
2022/10/10 01:42:19;;;;;;;4.10;3.70;;;10.70;91.50;;;;;;5102606;28;20274;-62
2022/10/10 01:44:46;;;;;;;9.53;3.70;;;10.70;91.40;;;;;;5112022;28;20184;-62
2022/10/10 01:47:13;;;;;;;4.07;3.30;;;10.70;91.30;;;;;;5115055;28;20180;-63
2022/10/10 01:49:41;;;;;;;5.93;3.37;;;10.60;91.20;;;;;;5095991;28;20189;-63
2022/10/10 01:52:31;;;;;;;9.07;3.70;;;10.60;91.40;;;;;;5108433;28;20215;-62
2022/10/10 01:55:21;;;;;;;5.73;3.47;;;10.60;91.50;;;;;;5112569;28;20184;-62
2022/10/10 01:58:05;;;;;;;3.73;3.30;;;10.40;91.30;;;;;;5113253;28;20180;-62
2022/10/10 02:00:38;;;;;;;5.53;3.23;;;10.40;91.60;;;;;;5106229;28;20179;-63
2022/10/10 02:03:16;;;;;;;4.83;3.40;;;10.40;91.70;;;;;;5096348;28;20233;-63
2022/10/10 02:05:44;;;;;;;5.57;3.50;;;10.50;91.60;;;;;;5108079;28;20244;-64
2022/10/10 02:08:36;;;;;;;4.60;3.37;;;10.50;91.40;;;;;;5109144;28;20230;-63
2022/10/10 02:11:08;;;;;;;5.77;4.00;;;10.50;91.50;;;;;;5109602;28;20218;-61
2022/10/10 02:13:57;;;;;;;4.73;3.37;;;10.50;91.80;;;;;;5111158;28;20275;-63
2022/10/10 02:16:28;;;;;;;4.77;3.17;;;10.50;91.70;;;;;;5105517;28;20212;-61
2022/10/10 02:18:56;;;;;;;5.93;3.07;;;10.50;91.60;;;;;;5103958;28;20259;-62
2022/10/10 02:21:23;;;;;;;6.20;4.07;;;10.60;91.40;;;;;;5106740;28;20187;-62
2022/10/10 02:23:52;;;;;;;5.33;3.07;;;10.50;91.70;;;;;;5096275;28;20275;-62
2022/10/10 02:26:20;;;;;;;7.07;3.80;;;10.60;91.70;;;;;;5104206;28;20252;-62
2022/10/10 02:28:55;;;;;;;6.67;3.67;;;10.60;91.60;;;;;;5080267;28;20202;-63
2022/10/10 02:31:30;;;;;;;3.40;2.80;;;10.30;91.30;;;;;;5111414;28;20199;-62
2022/10/10 02:34:03;;;;;;;6.53;3.53;;;10.40;91.80;;;;;;5105174;28;20176;-63
2022/10/10 02:36:30;;;;;;;5.90;3.60;;;10.50;91.70;;;;;;5117135;28;20199;-63
2022/10/10 02:38:58;;;;;;;6.07;3.50;;;10.50;91.70;;;;;;5096954;28;20241;-62
2022/10/10 02:41:24;;;;;;;4.60;3.17;;;10.60;91.70;;;;;;5099908;28;20211;-63
2022/10/10 02:43:51;;;;;;;5.87;3.47;;;10.60;91.60;;;;;;5106677;28;20184;-63
2022/10/10 02:46:17;;;;;;;3.30;3.00;;;10.70;91.50;;;;;;5117220;28;20263;-63
2022/10/10 02:48:43;;;;;;;4.47;4.03;;;10.70;91.40;;;;;;5111519;28;20344;-62
2022/10/10 02:51:10;;;;;;;6.23;3.30;;;10.70;91.40;;;;;;5117635;28;20203;-62
2022/10/10 02:53:37;;;;;;;8.37;3.33;;;10.70;91.40;;;;;;5099547;28;20209;-63
2022/10/10 02:56:03;;;;;;;8.77;3.40;;;10.80;91.40;;;;;;5100505;28;20180;-62
2022/10/10 02:58:29;;;;;;;5.13;3.20;;;10.70;91.40;;;;;;5103166;28;20181;-62
2022/10/10 03:00:55;;;;;;;7.57;3.80;;;10.70;91.50;;;;;;5100153;28;20195;-62
2022/10/10 03:03:20;;;;;;;6.80;3.87;;;10.80;91.40;;;;;;5114112;28;20198;-62
2022/10/10 03:05:46;;;;;;;6.03;3.40;;;10.80;91.40;;;;;;5116025;28;20185;-62
2022/10/10 03:08:12;;;;;;;6.20;3.10;;;10.80;91.20;;;;;;5098811;28;20188;-62
2022/10/10 03:10:37;;;;;;;3.90;2.80;;;10.70;90.80;;;;;;5097024;28;20209;-63
2022/10/10 03:13:03;;;;;;;5.80;3.53;;;10.70;91.30;;;;;;5100027;28;20190;-62
2022/10/10 03:15:29;;;;;;;7.70;3.03;;;10.70;91.30;;;;;;5087417;28;20180;-62
2022/10/10 03:17:54;;;;;;;6.13;3.47;;;10.60;91.30;;;;;;5099588;28;20198;-62
2022/10/10 03:20:20;;;;;;;4.37;3.07;;;10.60;91.40;;;;;;5115791;28;20271;-62
2022/10/10 03:22:46;;;;;;;6.77;3.33;;;10.60;91.50;;;;;;5097606;28;20220;-63
2022/10/10 03:25:22;;;;;;;11.10;3.90;;;10.70;91.20;;;;;;5099353;28;20659;-62
2022/10/10 03:27:47;;;;;;;5.93;3.77;;;10.80;91.20;;;;;;5116506;28;20188;-62
2022/10/10 03:30:13;;;;;;;4.17;3.27;;;10.80;91.20;;;;;;5109046;28;20199;-62
2022/10/10 03:32:39;;;;;;;5.73;3.47;;;10.80;91.20;;;;;;5098241;28;20189;-62
2022/10/10 03:35:04;;;;;;;6.57;3.23;;;10.80;91.10;;;;;;5093058;28;20188;-62
2022/10/10 03:37:30;;;;;;;10.13;4.03;;;10.90;91.10;;;;;;5109395;28;20195;-62
2022/10/10 03:39:56;;;;;;;5.73;3.27;;;10.90;91.10;;;;;;5098131;28;20323;-62
2022/10/10 03:42:22;;;;;;;6.40;3.43;;;11.00;91.10;;;;;;5099307;28;20283;-62
2022/10/10 03:44:47;;;;;;;5.60;2.97;;;11.00;91.00;;;;;;5081102;28;20278;-63
2022/10/10 03:47:13;;;;;;;4.50;2.73;;;11.00;91.00;;;;;;5099441;28;20238;-62
2022/10/10 03:49:39;;;;;;;5.57;3.23;;;11.00;91.20;;;;;;5115334;28;20216;-62
2022/10/10 03:52:04;;;;;;;4.30;3.40;;;10.90;91.20;;;;;;5098239;28;20295;-62
2022/10/10 03:54:30;;;;;;;5.67;3.10;;;11.00;91.00;;;;;;5098432;28;20222;-62
2022/10/10 03:56:55;;;;;;;4.83;3.20;;;11.00;90.90;;;;;;5115008;28;20212;-63
2022/10/10 03:59:21;;;;;;;4.23;2.93;;;10.90;90.20;;;;;;5098562;28;20211;-64
2022/10/10 04:01:47;;;;;;;4.80;2.87;;;10.70;90.80;;;;;;5097334;28;20197;-64
2022/10/10 04:04:12;;;;;;;6.13;3.37;;;10.80;91.10;;;;;;5099175;28;20192;-64
2022/10/10 04:06:38;;;;;;;4.37;3.03;;;10.80;91.20;;;;;;5092765;28;20192;-64
2022/10/10 04:09:04;;;;;;;3.50;3.00;;;10.80;91.30;;;;;;5105655;28;20279;-64
2022/10/10 04:11:30;;;;;;;5.30;3.47;;;10.80;91.30;;;;;;5114346;28;20208;-63
2022/10/10 04:13:55;;;;;;;4.37;3.20;;;10.90;91.10;;;;;;5097776;28;20332;-64
2022/10/10 04:16:21;;;;;;;5.53;2.63;;;10.90;91.10;;;;;;5097428;28;20179;-64
2022/10/10 04:18:47;;;;;;;12.43;3.20;;;10.90;90.70;;;;;;5115361;28;20184;-63
2022/10/10 04:21:12;;;;;;;5.20;3.10;;;10.80;91.00;;;;;;5098484;28;20184;-64
2022/10/10 04:23:40;;;;;;;7.43;3.10;;;10.80;91.10;;;;;;5091105;28;20181;-64
2022/10/10 04:26:06;;;;;;;3.63;2.97;;;10.80;90.80;;;;;;5078746;28;20187;-63
2022/10/10 04:28:31;;;;;;;3.60;3.10;;;10.60;90.90;;;;;;5113341;28;20188;-63
2022/10/10 04:30:57;;;;;;;8.03;3.53;;;10.70;91.50;;;;;;5080689;28;20213;-64
2022/10/10 04:33:23;;;;;;;7.53;3.43;;;10.80;91.50;;;;;;5095814;28;20177;-64
2022/10/10 04:35:49;;;;;;;4.73;3.47;;;10.80;91.40;;;;;;5114554;28;20188;-64
2022/10/10 04:38:16;;;;;;;4.60;2.83;;;10.90;91.50;;;;;;5096438;28;20242;-63
2022/10/10 04:40:42;;;;;;;9.07;3.10;;;10.80;90.60;;;;;;5093816;28;20189;-64
2022/10/10 04:43:07;;;;;;;3.47;2.97;;;10.70;91.20;;;;;;5094487;28;20195;-64
2022/10/10 04:45:33;;;;;;;4.30;3.23;;;10.80;91.30;;;;;;5094029;28;20181;-64
2022/10/10 04:47:59;;;;;;;6.90;2.83;;;10.90;91.30;;;;;;5091160;28;20211;-64
2022/10/10 04:50:25;;;;;;;4.77;3.10;;;11.00;91.30;;;;;;5109497;28;20214;-64
2022/10/10 04:52:50;;;;;;;3.23;2.83;;;10.90;91.20;;;;;;5077089;28;20184;-64
2022/10/10 04:55:16;;;;;;;7.77;3.00;;;11.00;91.20;;;;;;5100608;28;20190;-64
2022/10/10 04:57:42;;;;;;;4.07;2.50;;;10.90;90.90;;;;;;5098264;28;20184;-64
2022/10/10 05:00:08;;;;;;;4.70;3.00;;;10.90;91.00;;;;;;5109425;28;20307;-64
2022/10/10 05:02:34;;;;;;;3.97;2.60;;;10.90;91.10;;;;;;5091795;28;20277;-64
2022/10/10 05:04:59;;;;;;;5.30;3.33;;;11.00;91.00;;;;;;5095243;28;20330;-64
2022/10/10 05:07:25;;;;;;;4.97;2.77;;;11.10;90.80;;;;;;5085846;28;20281;-64
2022/10/10 05:09:51;;;;;;;6.77;3.13;;;11.10;90.70;;;;;;5077399;28;20287;-65
2022/10/10 05:12:16;;;;;;;6.37;2.90;;;11.00;90.60;;;;;;5093020;28;20212;-64
2022/10/10 05:14:42;;;;;;;4.77;2.73;;;11.00;90.70;;;;;;5110276;27;20188;-64
2022/10/10 05:17:08;;;;;;;3.57;2.60;;;11.10;90.70;;;;;;5094686;28;20181;-64
2022/10/10 05:19:33;;;;;;;7.50;2.77;;;11.10;90.60;;;;;;5109609;28;20180;-63
2022/10/10 05:21:59;;;;;;;6.30;2.60;;;11.10;90.40;;;;;;5094824;28;20196;-64
2022/10/10 05:24:25;;;;;;;6.60;2.57;;;11.20;90.30;;;;;;5094820;28;20187;-63
2022/10/10 05:26:50;;;;;;;7.60;2.93;;;11.20;90.20;;;;;;5093990;28;20279;-62
2022/10/10 05:29:16;;;;;;;8.27;2.80;;;11.20;90.30;;;;;;5107625;28;20254;-62
2022/10/10 05:31:42;;;;;;;3.10;2.80;;;11.30;90.40;;;;;;5110271;28;20257;-62
2022/10/10 05:34:12;;;;;;;7.17;2.60;;;11.20;90.20;;;;;;5107834;28;20176;-63
2022/10/10 05:36:39;;;;;;;6.23;2.83;;;10.90;90.40;;;;;;5107027;28;20188;-64
2022/10/10 05:39:04;;;;;;;4.90;2.80;;;10.90;90.90;;;;;;5113325;28;20315;-63
2022/10/10 05:41:30;;;;;;;3.43;2.97;;;11.10;90.90;;;;;;5095715;28;20268;-64
2022/10/10 05:43:56;;;;;;;6.73;3.20;;;11.10;90.60;;;;;;5094656;28;20210;-64
2022/10/10 05:46:25;;;;;;;5.53;3.47;;;11.00;90.90;;;;;;5094553;28;20266;-63
2022/10/10 05:48:52;;;;;;;4.17;2.87;;;10.90;90.50;;;;;;5095242;28;20207;-64
2022/10/10 05:51:18;;;;;;;6.03;3.03;;;10.90;91.00;;;;;;5092509;28;20221;-64
2022/10/10 05:53:43;;;;;;;3.23;2.90;;;11.10;91.10;;;;;;5104964;28;20213;-64
2022/10/10 05:56:10;;;;;;;4.10;2.97;;;11.10;91.10;;;;;;5074366;28;20227;-63
2022/10/10 05:58:36;;;;;;;7.80;3.27;;;11.10;91.00;;;;;;5095323;28;20184;-64
2022/10/10 06:01:06;;;;;;;4.20;2.77;;;11.20;90.90;;;;;;5108515;28;20196;-64
2022/10/10 06:03:33;;;;;;;7.27;3.63;;;11.30;91.00;;;;;;5111976;28;20195;-63
2022/10/10 06:05:59;;;;;;;4.10;3.07;;;11.30;90.90;;;;;;5098610;28;20180;-64
2022/10/10 06:08:25;;;;;;;6.20;3.37;;;11.30;90.50;;;;;;5102670;28;20201;-63
2022/10/10 06:10:51;;;;;;;6.90;3.60;;;11.30;90.00;;;;;;5114415;27;20212;-64
2022/10/10 06:13:18;;;;;;;6.33;4.00;;;11.20;90.50;;;;;;5110513;28;20267;-64
2022/10/10 06:15:44;;;;;;;7.30;3.47;;;11.30;90.80;;;;;;5110156;28;20180;-64
2022/10/10 06:18:10;;;;;;;6.97;3.40;;;11.30;90.90;;;;;;5086636;28;20214;-65
2022/10/10 06:20:38;;;;;;;3.63;3.20;;;11.40;91.00;;;;;;5098118;28;20280;-64
2022/10/10 06:23:05;;;;;;;5.17;3.07;;;11.40;90.90;;;;;;5107068;28;20189;-64
2022/10/10 06:25:33;;;;;;;4.10;3.20;;;11.50;90.70;;;;;;5103291;28;20185;-64
2022/10/10 06:27:59;;;;;;;5.63;3.53;;;11.50;90.90;;;;;;5106355;28;20192;-65
2022/10/10 06:30:25;;;;;;;5.93;3.70;;;11.50;90.30;;;;;;5081500;28;20208;-64
2022/10/10 06:32:51;;;;;;;8.43;4.30;;;11.60;90.30;;;;;;5093139;28;20203;-65
2022/10/10 06:35:17;;;;;;;6.83;4.10;;;11.70;90.30;;;;;;5107940;28;20188;-64
2022/10/10 06:37:42;;;;;;;6.90;3.70;;;11.70;90.40;;;;;;5076231;28;20185;-64
2022/10/10 06:40:08;;;;;;;4.53;3.17;;;11.70;90.10;;;;;;5110797;28;20321;-64
2022/10/10 06:42:34;;;;;;;5.13;3.43;;;11.80;89.70;;;;;;5104698;28;20193;-64
2022/10/10 06:45:00;;;;;;;4.00;3.57;;;11.80;89.50;;;;;;5095292;28;20195;-64
2022/10/10 06:47:26;;;;;;;6.00;3.23;;;11.80;89.80;;;;;;5094418;28;20198;-64
2022/10/10 06:49:51;;;;;;;6.10;3.53;;;11.90;89.50;;;;;;5090197;28;20189;-64
2022/10/10 06:52:17;;;;;;;4.57;3.70;;;11.90;89.60;;;;;;5089458;28;20214;-64
2022/10/10 06:54:43;;;;;;;6.23;3.47;;;12.00;89.50;;;;;;5089519;28;20292;-64
2022/10/10 06:57:08;;;;;;;5.17;3.87;;;12.00;89.40;;;;;;5089019;28;20223;-65
2022/10/10 06:59:34;;;;;;;4.47;3.40;;;12.10;89.40;;;;;;5072568;28;20192;-64
2022/10/10 07:02:00;;;;;;;5.30;3.43;;;12.10;89.10;;;;;;5079406;28;20220;-65
2022/10/10 07:04:25;;;;;;;5.83;3.63;;;12.00;87.80;;;;;;5088131;28;20192;-64
2022/10/10 07:06:51;;;;;;;5.80;4.27;;;12.00;89.10;;;;;;5091347;28;20200;-64
2022/10/10 07:09:18;;;;;;;6.20;3.57;;;12.10;88.30;;;;;;5092991;28;20214;-64
2022/10/10 07:11:44;;;;;;;6.17;3.83;;;12.00;87.10;;;;;;5094658;28;20264;-64
2022/10/10 07:14:13;;;;;;;5.70;3.10;;;12.00;87.90;;;;;;5074801;28;20284;-64
2022/10/10 07:16:39;;;;;;;4.40;2.93;;;12.10;87.90;;;;;;5109290;28;20192;-65
2022/10/10 07:19:05;;;;;;;6.40;3.47;;;12.20;88.20;;;;;;5104136;28;20176;-64
2022/10/10 07:21:31;;;;;;;4.67;3.23;;;12.30;88.60;;;;;;5097270;28;20261;-64
2022/10/10 07:23:57;;;;;;;6.63;3.83;;;12.30;87.40;;;;;;5102463;28;20239;-64
2022/10/10 07:26:26;;;;;;;4.03;3.27;;;12.30;87.50;;;;;;5096786;28;20291;-64
2022/10/10 07:28:52;;;;;;;3.80;3.10;;;12.30;87.60;;;;;;5090860;28;20750;-64
2022/10/10 07:31:18;;;;;;;6.73;3.00;;;12.40;87.50;;;;;;5112432;28;20235;-64
2022/10/10 07:33:46;;;;;;;4.33;3.67;;;12.50;87.00;;;;;;5090903;28;20196;-64
2022/10/10 07:36:12;;;;;;;3.50;3.07;;;12.50;86.70;;;;;;5114296;28;20212;-64
2022/10/10 07:38:38;;;;;;;6.43;3.07;;;12.60;86.80;;;;;;5108421;28;20231;-64
2022/10/10 07:41:09;;;;;;;5.70;3.37;;;12.70;87.70;;;;;;5107950;28;20196;-64
2022/10/10 07:43:36;;;;;;;3.37;3.03;;;12.80;87.10;;;;;;5091161;28;20201;-64
2022/10/10 07:46:03;;;;;;;3.83;3.10;;;12.80;87.10;;;;;;5109416;28;20188;-64
2022/10/10 07:48:30;;;;;;;7.80;3.37;;;12.90;87.60;;;;;;5109892;28;20225;-64
2022/10/10 07:50:55;;;;;;;3.30;2.90;;;13.00;87.70;;;;;;5088949;28;20315;-65
2022/10/10 07:53:21;;;;;;;4.13;3.03;;;13.00;86.60;;;;;;5080378;28;20257;-64
2022/10/10 07:55:47;;;;;;;4.77;3.00;;;13.00;86.00;;;;;;5096732;28;20199;-64
2022/10/10 07:58:13;;;;;;;4.47;2.70;;;13.10;85.00;;;;;;5112930;28;20184;-64
2022/10/10 08:00:40;;;;;;;6.20;3.00;;;13.20;85.60;;;;;;5110954;28;20320;-64
2022/10/10 08:03:10;;;;;;;6.10;3.23;;;13.20;85.50;;;;;;5100305;28;20196;-63
2022/10/10 08:05:41;;;;;;;4.27;3.00;;;13.30;85.60;;;;;;5113533;28;20188;-63
2022/10/10 08:08:07;;;;;;;3.60;2.73;;;13.30;85.50;;;;;;5108949;28;20197;-63
2022/10/10 08:10:33;;;;;;;6.77;2.50;;;13.30;84.80;;;;;;5094306;28;20221;-63
2022/10/10 08:12:59;;;;;;;3.77;2.57;;;13.30;83.90;;;;;;5114229;28;20231;-63
2022/10/10 08:15:25;;;;;;;5.73;2.90;;;13.40;84.10;;;;;;5080830;28;20209;-63
2022/10/10 08:17:50;;;;;;;4.87;3.17;;;13.50;83.90;;;;;;5113085;28;20264;-64
2022/10/10 08:20:16;;;;;;;4.87;3.00;;;13.50;84.10;;;;;;5095176;28;20193;-64
2022/10/10 08:22:42;;;;;;;4.10;2.83;;;13.70;84.20;;;;;;5088596;28;20246;-64
2022/10/10 08:25:08;;;;;;;3.77;3.10;;;13.70;84.50;;;;;;5081885;28;20618;-63
2022/10/10 08:27:34;;;;;;;3.80;2.73;;;13.80;83.10;;;;;;5104592;28;20188;-64
2022/10/10 08:29:59;;;;;;;2.90;2.60;;;13.70;78.60;;;;;;5084913;28;20267;-63
2022/10/10 08:32:25;;;;;;;6.40;2.80;;;13.70;80.00;;;;;;5112436;28;20223;-63
2022/10/10 08:34:51;;;;;;;4.43;2.90;;;13.80;80.30;;;;;;5091152;28;20225;-64
2022/10/10 08:37:17;;;;;;;6.00;2.90;;;13.80;81.60;;;;;;5091366;28;20193;-64
2022/10/10 08:39:43;;;;;;;5.23;2.67;;;13.90;80.60;;;;;;5094197;28;20240;-64
2022/10/10 08:42:16;;;;;;;4.73;2.40;;;14.00;81.00;;;;;;5099198;28;20245;-64
2022/10/10 08:44:53;;;;;;;3.53;3.00;;;14.00;79.10;;;;;;5112650;28;20196;-64
2022/10/10 08:47:23;;;;;;;6.50;2.83;;;13.90;75.80;;;;;;5113055;28;20326;-64
2022/10/10 08:50:17;;;;;;;2.83;2.40;;;13.80;75.70;;;;;;5114192;28;20184;-64
2022/10/10 08:52:49;;;;;;;3.57;2.20;;;13.80;76.60;;;;;;5089641;28;20241;-65
2022/10/10 08:55:31;;;;;;;6.13;2.10;;;13.80;76.50;;;;;;5102079;28;20181;-64
2022/10/10 08:58:15;;;;;;;4.30;2.30;;;13.80;75.20;;;;;;5100095;28;20203;-64
2022/10/10 09:00:49;;;;;;;3.57;2.43;;;13.80;77.00;;;;;;5096202;28;20235;-64
2022/10/10 09:03:44;;;;;;;4.17;2.30;;;13.90;78.80;;;;;;5095457;28;20193;-64
2022/10/10 09:06:22;;;;;;;3.67;1.90;;;14.00;79.60;;;;;;5108140;28;20196;-63
2022/10/10 09:09:21;;;;;;;4.67;2.50;;;14.10;77.80;;;;;;5110420;28;20188;-63
2022/10/10 09:12:11;;;;;;;4.00;2.30;;;14.00;71.90;;;;;;5110416;28;20220;-63
2022/10/10 09:14:55;;;;;;;5.03;2.20;;;14.10;76.60;;;;;;5110389;28;20261;-64
2022/10/10 09:17:34;;;;;;;6.37;2.93;;;14.30;76.50;;;;;;5108483;28;20256;-64
2022/10/10 09:20:18;;;;;;;3.07;2.30;;;14.40;76.70;;;;;;5104688;28;20194;-64
2022/10/10 09:23:11;;;;;;;4.07;2.17;;;14.40;75.40;;;;;;5097170;28;20208;-64
2022/10/10 09:25:44;;;;;;;5.90;2.87;;;14.30;69.40;;;;;;5120342;27;20201;-64
2022/10/10 09:28:25;;;;;;;5.03;2.67;;;14.30;71.50;;;;;;5103317;28;20197;-64
2022/10/10 09:30:55;;;;;;;4.30;2.63;;;14.30;73.30;;;;;;5113638;28;20208;-64
2022/10/10 09:33:40;;;;;;;2.53;2.33;;;14.30;71.30;;;;;;5103653;28;20188;-64
2022/10/10 09:36:11;;;;;;;4.10;2.67;;;14.50;74.40;;;;;;5110342;28;20189;-64
2022/10/10 09:38:57;;;;;;;4.73;2.23;;;14.30;70.00;;;;;;5102971;28;20233;-64
2022/10/10 09:41:39;;;;;;;6.70;2.00;;;14.40;68.90;;;;;;5109384;28;20198;-64
2022/10/10 09:44:11;;;;;;;2.57;2.10;;;14.40;68.20;;;;;;5107226;28;20203;-64
2022/10/10 09:46:37;;;;;;;4.63;2.20;;;14.50;70.70;;;;;;5096343;28;20185;-64
2022/10/10 09:49:04;;;;;;;5.13;3.17;;;14.50;68.20;;;;;;5085336;28;20200;-64
2022/10/10 09:51:31;;;;;;;4.07;2.80;;;14.60;70.30;;;;;;5080412;28;20216;-64
2022/10/10 09:53:57;;;;;;;6.50;3.03;;;14.70;73.00;;;;;;5091344;28;20201;-64
2022/10/10 09:56:32;;;;;;;3.37;2.83;;;14.80;73.00;;;;;;5088345;28;20186;-64
2022/10/10 09:58:58;;;;;;;5.20;2.30;;;14.80;72.60;;;;;;5103591;28;20189;-64
2022/10/10 10:01:32;;;;;;;3.17;2.57;;;14.90;74.40;;;;;;5088517;28;20203;-64
2022/10/10 10:04:17;;;;;;;4.23;2.23;;;14.90;71.00;;;;;;5106100;28;20188;-64
2022/10/10 10:06:49;;;;;;;5.70;2.83;;;15.00;71.70;;;;;;5107583;28;20189;-64
2022/10/10 10:09:24;;;;;;;6.80;2.90;;;15.10;71.80;;;;;;5102702;28;20225;-64
2022/10/10 10:11:57;;;;;;;3.80;2.67;;;15.20;72.30;;;;;;5081362;28;20212;-64
2022/10/10 10:14:30;;;;;;;4.00;2.47;;;15.10;67.90;;;;;;5100829;28;20190;-64
2022/10/10 10:17:06;;;;;;;3.13;2.50;;;15.10;71.20;;;;;;5108445;28;20200;-64
2022/10/10 10:19:37;;;;;;;5.13;2.87;;;15.00;69.20;;;;;;5122169;27;20271;-64
2022/10/10 10:22:04;;;;;;;6.93;2.63;;;15.00;69.50;;;;;;5107220;28;20188;-65
2022/10/10 10:24:37;;;;;;;7.43;2.50;;;15.10;69.30;;;;;;5092985;28;20222;-64
2022/10/10 10:27:15;;;;;;;3.53;2.80;;;15.10;71.00;;;;;;5110638;28;20203;-64
2022/10/10 10:29:46;;;;;;;5.03;2.63;;;15.10;69.90;;;;;;5096617;28;20203;-64
2022/10/10 10:32:50;;;;;;;4.30;3.30;;;15.10;71.80;;;;;;5111389;28;20196;-64
2022/10/10 10:35:32;;;;;;;5.50;3.80;;;15.20;71.40;;;;;;5110552;28;20180;-64
2022/10/10 10:38:00;;;;;;;5.03;4.10;;;15.20;68.00;;;;;;5104768;28;20192;-64
2022/10/10 10:40:39;;;;;;;5.57;4.10;;;15.20;71.40;;;;;;5098342;28;20264;-64
2022/10/10 10:43:16;;;;;;;6.80;3.73;;;15.30;72.10;;;;;;5102333;28;20225;-64
2022/10/10 10:45:51;;;;;;;8.90;4.13;;;15.30;71.40;;;;;;5101385;28;20195;-64
2022/10/10 10:48:28;;;;;;;7.23;3.77;;;15.30;71.40;;;;;;5102573;28;20211;-64
2022/10/10 10:50:55;;;;;;;6.13;4.30;;;15.30;70.60;;;;;;5105226;28;20316;-64
2022/10/10 10:53:44;;;;;;;7.37;4.37;;;15.30;68.30;;;;;;5099607;28;20178;-64
2022/10/10 10:56:39;;;;;;;7.03;4.00;;;15.40;69.70;;;;;;5114375;28;20226;-64
2022/10/10 10:59:04;;;;;;;7.30;4.30;;;15.50;71.20;;;;;;5099570;28;20296;-64
2022/10/10 11:01:43;;;;;;;5.77;4.37;;;15.50;72.10;;;;;;5115222;28;20294;-64
2022/10/10 11:04:32;;;;;;;9.87;5.10;;;15.60;73.20;;;;;;5096097;28;20206;-64
2022/10/10 11:07:16;;;;;;;7.83;4.63;;;15.70;72.00;;;;;;5115577;28;20199;-63
2022/10/10 11:09:52;;;;;;;7.70;4.40;;;15.80;70.70;;;;;;5113742;27;20193;-64
2022/10/10 11:12:36;;;;;;;5.90;5.13;;;15.90;71.60;;;;;;5112636;28;20204;-63
2022/10/10 11:15:22;;;;;;;7.40;4.40;;;16.00;71.40;;;;;;5098596;28;20212;-63
2022/10/10 11:18:11;;;;;;;6.63;5.20;;;16.10;71.50;;;;;;5106271;28;20201;-62
2022/10/10 11:20:44;;;;;;;8.87;5.70;;;16.30;66.80;;;;;;5111713;28;20180;-61
2022/10/10 11:23:24;;;;;;;9.07;5.97;;;16.40;69.50;;;;;;5108482;28;20271;-61
2022/10/10 11:26:04;;;;;;;8.90;6.27;;;16.50;70.20;;;;;;5098730;28;20270;-60
2022/10/10 11:28:47;;;;;;;9.73;5.40;;;16.60;70.10;;;;;;5119500;27;20224;-60
2022/10/10 11:31:30;;;;;;;8.87;5.97;;;16.70;69.60;;;;;;5103706;28;20204;-60
2022/10/10 11:34:04;;;;;;;7.60;5.70;;;16.80;65.60;;;;;;5107376;28;20196;-62
2022/10/10 11:36:36;;;;;;;6.37;4.87;;;16.80;65.70;;;;;;5102797;28;20184;-62
2022/10/10 11:39:16;;;;;;;9.40;5.23;;;16.90;66.40;;;;;;5102143;28;20231;-62
2022/10/10 11:41:50;;;;;;;9.83;6.13;;;16.90;65.00;;;;;;5106141;28;20193;-62
2022/10/10 11:44:21;;;;;;;7.33;5.40;;;17.10;65.60;;;;;;5104366;28;20196;-62
2022/10/10 11:47:09;;;;;;;8.57;5.57;;;17.20;65.40;;;;;;5111133;28;20205;-62
2022/10/10 11:49:53;;;;;;;9.27;4.80;;;17.30;64.60;;;;;;5114139;28;20185;-62
2022/10/10 11:52:26;;;;;;;13.57;6.50;;;17.30;65.10;;;;;;5104069;28;20291;-62
2022/10/10 11:54:51;;;;;;;11.50;6.37;;;17.30;62.60;;;;;;5106100;28;20188;-62
2022/10/10 11:57:22;;;;;;;9.80;5.97;;;17.40;65.70;;;;;;5107186;28;20530;-62
2022/10/10 11:59:54;;;;;;;8.23;5.47;;;17.50;66.10;;;;;;5105565;28;20206;-62
2022/10/10 12:02:35;;;;;;;5.67;4.73;;;17.70;66.30;;;;;;5107104;28;20194;-62
2022/10/10 12:05:01;;;;;;;14.43;5.93;;;17.90;66.10;;;;;;5107708;28;20185;-63
2022/10/10 12:07:30;;;;;;;7.20;5.60;;;18.10;65.10;;;;;;5098257;28;20227;-63
2022/10/10 12:10:15;;;;;;;6.43;4.90;;;18.20;62.90;;;;;;5106120;28;20215;-63
2022/10/10 12:12:46;;;;;;;6.20;4.87;;;18.50;63.40;;;;;;5103125;28;20212;-64
2022/10/10 12:15:31;;;;;;;7.27;5.37;;;18.70;63.70;;;;;;5112546;28;20183;-63
2022/10/10 12:17:57;;;;;;;12.87;6.40;;;18.90;65.40;;;;;;5106804;28;20223;-63
2022/10/10 12:20:26;;;;;;;8.23;5.23;;;19.20;63.90;;;;;;5102108;28;20193;-61
2022/10/10 12:23:13;;;;;;;9.20;6.47;;;19.30;61.20;;;;;;5101468;28;20215;-62
2022/10/10 12:25:45;;;;;;;9.37;6.43;;;19.30;58.70;;;;;;5105132;28;20261;-62
2022/10/10 12:28:14;;;;;;;10.13;6.50;;;19.10;57.70;;;;;;5097885;28;20189;-62
2022/10/10 12:30:55;;;;;;;8.30;5.90;;;19.20;60.40;;;;;;5108655;28;20240;-62
2022/10/10 12:33:24;;;;;;;7.90;5.70;;;19.30;60.70;;;;;;5114082;28;20191;-62
2022/10/10 12:35:50;;;;;;;6.77;5.67;;;19.20;60.40;;;;;;5112774;28;20184;-62
2022/10/10 12:38:24;;;;;;;7.77;5.10;;;19.40;61.60;;;;;;5093781;28;20384;-62
2022/10/10 12:40:56;;;;;;;9.60;4.70;;;19.40;61.20;;;;;;5105447;28;20197;-62
2022/10/10 12:43:48;;;;;;;5.30;4.80;;;19.50;62.80;;;;;;5110403;28;20192;-63
2022/10/10 12:46:21;;;;;;;8.30;4.60;;;19.50;62.80;;;;;;5109950;28;20212;-63
2022/10/10 12:49:00;;;;;;;8.33;5.67;;;19.70;61.30;;;;;;5111935;27;20191;-63
2022/10/10 12:51:27;;;;;;;8.13;4.70;;;19.90;60.50;;;;;;5109492;28;20219;-63
2022/10/10 12:53:56;;;;;;;5.57;4.93;;;20.10;59.20;;;;;;5104161;28;20196;-63
2022/10/10 12:57:11;;;;;;;8.50;5.10;;;20.30;59.50;;;;;;5097485;27;20193;-63
2022/10/10 12:59:38;;;;;;;10.67;5.60;;;20.50;58.80;;;;;;5065426;28;20289;-62
2022/10/10 13:02:17;;;;;;;8.33;5.10;;;20.40;55.20;;;;;;5098622;28;20241;-62
2022/10/10 13:04:45;;;;;;;7.90;5.60;;;20.40;59.30;;;;;;5106850;28;20220;-62